sensor_id;sensor_type;location;lat;lon;timestamp;P1;durP1;ratioP1;P2;durP2;ratioP2
4636;SDS011;2331;48.806;9.140;2023-04-25T00:01:32;1.70;;;1.23;;
4636;SDS011;2331;48.806;9.140;2023-04-25T00:04:01;2.22;;;0.90;;
4636;SDS011;2331;48.806;9.140;2023-04-25T00:06:29;2.78;;;1.27;;
4636;SDS011;2331;48.806;9.140;2023-04-25T00:08:56;1.75;;;1.10;;
4636;SDS011;2331;48.806;9.140;2023-04-25T00:11:23;2.75;;;1.33;;
4636;SDS011;2331;48.806;9.140;2023-04-25T00:13:50;1.65;;;1.15;;
4636;SDS011;2331;48.806;9.140;2023-04-25T00:16:17;2.60;;;1.23;;
4636;SDS011;2331;48.806;9.140;2023-04-25T00:18:44;1.10;;;0.90;;
4636;SDS011;2331;48.806;9.140;2023-04-25T00:21:16;2.45;;;1.30;;
4636;SDS011;2331;48.806;9.140;2023-04-25T00:23:44;2.35;;;1.15;;
4636;SDS011;2331;48.806;9.140;2023-04-25T00:26:11;1.60;;;0.98;;
4636;SDS011;2331;48.806;9.140;2023-04-25T00:28:38;2.22;;;1.30;;
4636;SDS011;2331;48.806;9.140;2023-04-25T00:31:05;2.85;;;1.02;;
4636;SDS011;2331;48.806;9.140;2023-04-25T00:33:32;1.63;;;1.20;;
4636;SDS011;2331;48.806;9.140;2023-04-25T00:35:59;2.30;;;1.40;;
4636;SDS011;2331;48.806;9.140;2023-04-25T00:38:26;1.98;;;1.20;;
4636;SDS011;2331;48.806;9.140;2023-04-25T00:40:54;3.25;;;1.42;;
4636;SDS011;2331;48.806;9.140;2023-04-25T00:43:22;3.33;;;1.50;;
4636;SDS011;2331;48.806;9.140;2023-04-25T00:45:50;1.90;;;1.30;;
4636;SDS011;2331;48.806;9.140;2023-04-25T00:48:19;2.63;;;1.38;;
4636;SDS011;2331;48.806;9.140;2023-04-25T00:50:48;2.50;;;1.40;;
4636;SDS011;2331;48.806;9.140;2023-04-25T00:53:18;2.45;;;1.58;;
4636;SDS011;2331;48.806;9.140;2023-04-25T00:55:45;4.43;;;1.63;;
4636;SDS011;2331;48.806;9.140;2023-04-25T00:58:13;1.55;;;1.52;;
4636;SDS011;2331;48.806;9.140;2023-04-25T01:00:40;3.03;;;1.73;;
4636;SDS011;2331;48.806;9.140;2023-04-25T01:03:07;3.17;;;1.40;;
4636;SDS011;2331;48.806;9.140;2023-04-25T01:05:35;5.38;;;2.00;;
4636;SDS011;2331;48.806;9.140;2023-04-25T01:08:01;3.28;;;1.60;;
4636;SDS011;2331;48.806;9.140;2023-04-25T01:10:28;2.35;;;1.42;;
4636;SDS011;2331;48.806;9.140;2023-04-25T01:12:55;2.28;;;1.40;;
4636;SDS011;2331;48.806;9.140;2023-04-25T01:15:23;2.35;;;1.40;;
4636;SDS011;2331;48.806;9.140;2023-04-25T01:17:50;3.67;;;1.48;;
4636;SDS011;2331;48.806;9.140;2023-04-25T01:20:18;1.77;;;1.40;;
4636;SDS011;2331;48.806;9.140;2023-04-25T01:22:49;2.45;;;1.67;;
4636;SDS011;2331;48.806;9.140;2023-04-25T01:25:16;6.63;;;1.85;;
4636;SDS011;2331;48.806;9.140;2023-04-25T01:27:44;3.65;;;1.70;;
4636;SDS011;2331;48.806;9.140;2023-04-25T01:30:12;6.22;;;2.20;;
4636;SDS011;2331;48.806;9.140;2023-04-25T01:32:40;4.03;;;1.92;;
4636;SDS011;2331;48.806;9.140;2023-04-25T01:35:08;2.47;;;2.00;;
4636;SDS011;2331;48.806;9.140;2023-04-25T01:37:36;2.22;;;1.60;;
4636;SDS011;2331;48.806;9.140;2023-04-25T01:40:05;11.77;;;2.45;;
4636;SDS011;2331;48.806;9.140;2023-04-25T01:42:32;4.25;;;1.88;;
4636;SDS011;2331;48.806;9.140;2023-04-25T01:45:00;2.35;;;1.35;;
4636;SDS011;2331;48.806;9.140;2023-04-25T01:47:27;4.00;;;1.60;;
4636;SDS011;2331;48.806;9.140;2023-04-25T01:49:53;2.45;;;1.60;;
4636;SDS011;2331;48.806;9.140;2023-04-25T01:52:20;3.75;;;1.50;;
4636;SDS011;2331;48.806;9.140;2023-04-25T01:54:47;1.65;;;1.42;;
4636;SDS011;2331;48.806;9.140;2023-04-25T01:57:17;2.25;;;1.50;;
4636;SDS011;2331;48.806;9.140;2023-04-25T01:59:43;5.72;;;2.10;;
4636;SDS011;2331;48.806;9.140;2023-04-25T02:02:11;2.30;;;1.60;;
4636;SDS011;2331;48.806;9.140;2023-04-25T02:04:37;4.10;;;1.88;;
4636;SDS011;2331;48.806;9.140;2023-04-25T02:07:04;1.90;;;1.45;;
4636;SDS011;2331;48.806;9.140;2023-04-25T02:09:31;2.85;;;1.70;;
4636;SDS011;2331;48.806;9.140;2023-04-25T02:11:58;2.08;;;1.65;;
4636;SDS011;2331;48.806;9.140;2023-04-25T02:14:26;2.13;;;1.40;;
4636;SDS011;2331;48.806;9.140;2023-04-25T02:16:53;2.53;;;1.60;;
4636;SDS011;2331;48.806;9.140;2023-04-25T02:19:20;2.70;;;1.60;;
4636;SDS011;2331;48.806;9.140;2023-04-25T02:21:47;5.75;;;2.50;;
4636;SDS011;2331;48.806;9.140;2023-04-25T02:24:14;4.32;;;1.98;;
4636;SDS011;2331;48.806;9.140;2023-04-25T02:26:40;2.83;;;1.85;;
4636;SDS011;2331;48.806;9.140;2023-04-25T02:29:07;2.08;;;1.77;;
4636;SDS011;2331;48.806;9.140;2023-04-25T02:31:35;2.65;;;1.60;;
4636;SDS011;2331;48.806;9.140;2023-04-25T02:34:02;3.92;;;1.77;;
4636;SDS011;2331;48.806;9.140;2023-04-25T02:36:29;2.60;;;1.45;;
4636;SDS011;2331;48.806;9.140;2023-04-25T02:38:59;3.28;;;1.42;;
4636;SDS011;2331;48.806;9.140;2023-04-25T02:41:25;5.32;;;1.70;;
4636;SDS011;2331;48.806;9.140;2023-04-25T02:43:52;3.58;;;1.60;;
4636;SDS011;2331;48.806;9.140;2023-04-25T02:46:19;2.60;;;1.80;;
4636;SDS011;2331;48.806;9.140;2023-04-25T02:48:47;2.60;;;1.85;;
4636;SDS011;2331;48.806;9.140;2023-04-25T02:51:14;3.80;;;1.80;;
4636;SDS011;2331;48.806;9.140;2023-04-25T02:53:41;4.20;;;2.00;;
4636;SDS011;2331;48.806;9.140;2023-04-25T02:56:08;3.10;;;2.05;;
4636;SDS011;2331;48.806;9.140;2023-04-25T02:58:35;2.60;;;1.55;;
4636;SDS011;2331;48.806;9.140;2023-04-25T03:01:01;2.58;;;1.50;;
4636;SDS011;2331;48.806;9.140;2023-04-25T03:03:28;2.67;;;1.80;;
4636;SDS011;2331;48.806;9.140;2023-04-25T03:05:56;4.00;;;1.73;;
4636;SDS011;2331;48.806;9.140;2023-04-25T03:08:23;6.40;;;1.50;;
4636;SDS011;2331;48.806;9.140;2023-04-25T03:10:51;3.13;;;1.70;;
4636;SDS011;2331;48.806;9.140;2023-04-25T03:13:20;2.20;;;1.60;;
4636;SDS011;2331;48.806;9.140;2023-04-25T03:15:47;3.95;;;1.70;;
4636;SDS011;2331;48.806;9.140;2023-04-25T03:18:14;5.88;;;1.73;;
4636;SDS011;2331;48.806;9.140;2023-04-25T03:20:41;3.83;;;2.10;;
4636;SDS011;2331;48.806;9.140;2023-04-25T03:23:09;2.40;;;1.77;;
4636;SDS011;2331;48.806;9.140;2023-04-25T03:25:36;2.08;;;1.48;;
4636;SDS011;2331;48.806;9.140;2023-04-25T03:28:02;2.70;;;1.83;;
4636;SDS011;2331;48.806;9.140;2023-04-25T03:30:29;3.03;;;1.67;;
4636;SDS011;2331;48.806;9.140;2023-04-25T03:32:56;2.53;;;1.50;;
4636;SDS011;2331;48.806;9.140;2023-04-25T03:35:23;2.67;;;1.70;;
4636;SDS011;2331;48.806;9.140;2023-04-25T03:37:49;1.58;;;1.30;;
4636;SDS011;2331;48.806;9.140;2023-04-25T03:40:18;3.03;;;1.50;;
4636;SDS011;2331;48.806;9.140;2023-04-25T03:42:44;2.13;;;1.80;;
4636;SDS011;2331;48.806;9.140;2023-04-25T03:45:11;4.30;;;2.15;;
4636;SDS011;2331;48.806;9.140;2023-04-25T03:47:38;4.82;;;1.80;;
4636;SDS011;2331;48.806;9.140;2023-04-25T03:50:05;3.63;;;1.65;;
4636;SDS011;2331;48.806;9.140;2023-04-25T03:52:32;2.72;;;2.00;;
4636;SDS011;2331;48.806;9.140;2023-04-25T03:54:59;2.65;;;1.85;;
4636;SDS011;2331;48.806;9.140;2023-04-25T03:57:27;2.65;;;1.90;;
4636;SDS011;2331;48.806;9.140;2023-04-25T03:59:54;1.90;;;1.60;;
4636;SDS011;2331;48.806;9.140;2023-04-25T04:02:21;4.75;;;1.80;;
4636;SDS011;2331;48.806;9.140;2023-04-25T04:04:48;4.47;;;2.33;;
4636;SDS011;2331;48.806;9.140;2023-04-25T04:07:15;3.10;;;1.90;;
4636;SDS011;2331;48.806;9.140;2023-04-25T04:09:41;2.63;;;1.90;;
4636;SDS011;2331;48.806;9.140;2023-04-25T04:12:08;3.40;;;1.90;;
4636;SDS011;2331;48.806;9.140;2023-04-25T04:14:37;7.90;;;2.22;;
4636;SDS011;2331;48.806;9.140;2023-04-25T04:17:04;2.47;;;1.60;;
4636;SDS011;2331;48.806;9.140;2023-04-25T04:19:31;1.92;;;1.55;;
4636;SDS011;2331;48.806;9.140;2023-04-25T04:21:57;3.92;;;2.20;;
4636;SDS011;2331;48.806;9.140;2023-04-25T04:24:24;3.85;;;2.05;;
4636;SDS011;2331;48.806;9.140;2023-04-25T04:26:51;2.67;;;1.88;;
4636;SDS011;2331;48.806;9.140;2023-04-25T04:29:17;3.92;;;2.38;;
4636;SDS011;2331;48.806;9.140;2023-04-25T04:31:48;2.28;;;1.92;;
4636;SDS011;2331;48.806;9.140;2023-04-25T04:34:15;3.38;;;2.00;;
4636;SDS011;2331;48.806;9.140;2023-04-25T04:36:42;3.60;;;2.15;;
4636;SDS011;2331;48.806;9.140;2023-04-25T04:39:10;2.55;;;1.90;;
4636;SDS011;2331;48.806;9.140;2023-04-25T04:41:37;2.95;;;1.80;;
4636;SDS011;2331;48.806;9.140;2023-04-25T04:44:04;3.40;;;2.20;;
4636;SDS011;2331;48.806;9.140;2023-04-25T04:46:33;3.55;;;1.92;;
4636;SDS011;2331;48.806;9.140;2023-04-25T04:49:04;3.88;;;2.38;;
4636;SDS011;2331;48.806;9.140;2023-04-25T04:51:31;4.95;;;2.40;;
4636;SDS011;2331;48.806;9.140;2023-04-25T04:53:58;3.13;;;2.50;;
4636;SDS011;2331;48.806;9.140;2023-04-25T04:56:27;4.90;;;2.60;;
4636;SDS011;2331;48.806;9.140;2023-04-25T04:58:54;2.40;;;1.90;;
4636;SDS011;2331;48.806;9.140;2023-04-25T05:01:21;3.00;;;2.10;;
4636;SDS011;2331;48.806;9.140;2023-04-25T05:03:48;4.47;;;2.20;;
4636;SDS011;2331;48.806;9.140;2023-04-25T05:06:16;3.40;;;2.40;;
4636;SDS011;2331;48.806;9.140;2023-04-25T05:08:43;6.78;;;2.50;;
4636;SDS011;2331;48.806;9.140;2023-04-25T05:11:09;2.97;;;2.38;;
4636;SDS011;2331;48.806;9.140;2023-04-25T05:13:36;3.53;;;2.42;;
4636;SDS011;2331;48.806;9.140;2023-04-25T05:16:03;4.15;;;2.30;;
4636;SDS011;2331;48.806;9.140;2023-04-25T05:18:30;4.25;;;2.55;;
4636;SDS011;2331;48.806;9.140;2023-04-25T05:20:57;4.95;;;2.80;;
4636;SDS011;2331;48.806;9.140;2023-04-25T05:23:25;3.88;;;2.55;;
4636;SDS011;2331;48.806;9.140;2023-04-25T05:25:52;4.28;;;2.58;;
4636;SDS011;2331;48.806;9.140;2023-04-25T05:28:19;5.70;;;2.90;;
4636;SDS011;2331;48.806;9.140;2023-04-25T05:30:46;5.65;;;2.92;;
4636;SDS011;2331;48.806;9.140;2023-04-25T05:33:13;3.33;;;2.60;;
4636;SDS011;2331;48.806;9.140;2023-04-25T05:35:39;4.53;;;2.60;;
4636;SDS011;2331;48.806;9.140;2023-04-25T05:38:06;4.25;;;2.90;;
4636;SDS011;2331;48.806;9.140;2023-04-25T05:40:34;4.00;;;2.80;;
4636;SDS011;2331;48.806;9.140;2023-04-25T05:43:01;9.85;;;3.50;;
4636;SDS011;2331;48.806;9.140;2023-04-25T05:45:28;3.75;;;2.50;;
4636;SDS011;2331;48.806;9.140;2023-04-25T05:47:55;6.63;;;3.28;;
4636;SDS011;2331;48.806;9.140;2023-04-25T05:50:22;3.47;;;2.88;;
4636;SDS011;2331;48.806;9.140;2023-04-25T05:52:48;3.50;;;2.65;;
4636;SDS011;2331;48.806;9.140;2023-04-25T05:55:15;3.80;;;2.60;;
4636;SDS011;2331;48.806;9.140;2023-04-25T05:57:43;4.15;;;2.75;;
4636;SDS011;2331;48.806;9.140;2023-04-25T06:00:11;3.83;;;2.60;;
4636;SDS011;2331;48.806;9.140;2023-04-25T06:02:40;4.32;;;2.97;;
4636;SDS011;2331;48.806;9.140;2023-04-25T06:05:08;2.50;;;2.33;;
4636;SDS011;2331;48.806;9.140;2023-04-25T06:07:35;4.75;;;2.65;;
4636;SDS011;2331;48.806;9.140;2023-04-25T06:10:05;5.57;;;2.75;;
4636;SDS011;2331;48.806;9.140;2023-04-25T06:12:33;4.68;;;2.83;;
4636;SDS011;2331;48.806;9.140;2023-04-25T06:15:01;3.00;;;2.22;;
4636;SDS011;2331;48.806;9.140;2023-04-25T06:17:28;2.58;;;2.05;;
4636;SDS011;2331;48.806;9.140;2023-04-25T06:19:55;2.88;;;2.20;;
4636;SDS011;2331;48.806;9.140;2023-04-25T06:22:22;2.90;;;2.30;;
4636;SDS011;2331;48.806;9.140;2023-04-25T06:24:48;4.85;;;2.63;;
4636;SDS011;2331;48.806;9.140;2023-04-25T06:27:15;2.80;;;2.10;;
4636;SDS011;2331;48.806;9.140;2023-04-25T06:29:42;4.05;;;2.50;;
4636;SDS011;2331;48.806;9.140;2023-04-25T06:32:10;3.30;;;2.70;;
4636;SDS011;2331;48.806;9.140;2023-04-25T06:34:37;3.85;;;2.45;;
4636;SDS011;2331;48.806;9.140;2023-04-25T06:37:03;3.55;;;2.80;;
4636;SDS011;2331;48.806;9.140;2023-04-25T06:39:30;7.05;;;3.42;;
4636;SDS011;2331;48.806;9.140;2023-04-25T06:41:57;3.17;;;2.65;;
4636;SDS011;2331;48.806;9.140;2023-04-25T06:44:24;3.63;;;2.28;;
4636;SDS011;2331;48.806;9.140;2023-04-25T06:46:51;4.85;;;2.63;;
4636;SDS011;2331;48.806;9.140;2023-04-25T06:49:19;5.60;;;2.83;;
4636;SDS011;2331;48.806;9.140;2023-04-25T06:51:46;3.20;;;2.70;;
4636;SDS011;2331;48.806;9.140;2023-04-25T06:54:12;3.38;;;2.67;;
4636;SDS011;2331;48.806;9.140;2023-04-25T06:56:39;4.32;;;2.97;;
4636;SDS011;2331;48.806;9.140;2023-04-25T06:59:06;3.60;;;2.70;;
4636;SDS011;2331;48.806;9.140;2023-04-25T07:01:33;3.72;;;3.08;;
4636;SDS011;2331;48.806;9.140;2023-04-25T07:04:00;6.85;;;3.45;;
4636;SDS011;2331;48.806;9.140;2023-04-25T07:06:28;5.15;;;3.08;;
4636;SDS011;2331;48.806;9.140;2023-04-25T07:08:56;6.78;;;3.20;;
4636;SDS011;2331;48.806;9.140;2023-04-25T07:11:22;3.30;;;2.70;;
4636;SDS011;2331;48.806;9.140;2023-04-25T07:13:50;3.28;;;2.53;;
4636;SDS011;2331;48.806;9.140;2023-04-25T07:16:16;5.15;;;3.50;;
4636;SDS011;2331;48.806;9.140;2023-04-25T07:18:43;4.75;;;3.58;;
4636;SDS011;2331;48.806;9.140;2023-04-25T07:21:10;7.70;;;2.90;;
4636;SDS011;2331;48.806;9.140;2023-04-25T07:23:38;6.20;;;3.38;;
4636;SDS011;2331;48.806;9.140;2023-04-25T07:26:05;4.78;;;3.10;;
4636;SDS011;2331;48.806;9.140;2023-04-25T07:28:32;5.50;;;3.60;;
4636;SDS011;2331;48.806;9.140;2023-04-25T07:30:59;5.75;;;2.85;;
4636;SDS011;2331;48.806;9.140;2023-04-25T07:33:26;3.20;;;2.83;;
4636;SDS011;2331;48.806;9.140;2023-04-25T07:35:53;5.38;;;3.55;;
4636;SDS011;2331;48.806;9.140;2023-04-25T07:38:21;5.00;;;3.42;;
4636;SDS011;2331;48.806;9.140;2023-04-25T07:40:49;5.13;;;3.30;;
4636;SDS011;2331;48.806;9.140;2023-04-25T07:43:16;4.82;;;3.25;;
4636;SDS011;2331;48.806;9.140;2023-04-25T07:45:43;7.60;;;3.33;;
4636;SDS011;2331;48.806;9.140;2023-04-25T07:48:10;5.60;;;3.55;;
4636;SDS011;2331;48.806;9.140;2023-04-25T07:50:37;5.53;;;2.75;;
4636;SDS011;2331;48.806;9.140;2023-04-25T07:53:03;5.88;;;3.20;;
4636;SDS011;2331;48.806;9.140;2023-04-25T07:55:30;4.50;;;3.10;;
4636;SDS011;2331;48.806;9.140;2023-04-25T07:57:58;5.18;;;3.70;;
4636;SDS011;2331;48.806;9.140;2023-04-25T08:00:25;3.90;;;2.80;;
4636;SDS011;2331;48.806;9.140;2023-04-25T08:02:52;4.07;;;3.10;;
4636;SDS011;2331;48.806;9.140;2023-04-25T08:05:18;4.13;;;2.97;;
4636;SDS011;2331;48.806;9.140;2023-04-25T08:07:45;4.28;;;2.92;;
4636;SDS011;2331;48.806;9.140;2023-04-25T08:10:12;5.43;;;2.80;;
4636;SDS011;2331;48.806;9.140;2023-04-25T08:12:38;6.05;;;2.80;;
4636;SDS011;2331;48.806;9.140;2023-04-25T08:15:07;5.78;;;3.20;;
4636;SDS011;2331;48.806;9.140;2023-04-25T08:17:35;3.78;;;2.95;;
4636;SDS011;2331;48.806;9.140;2023-04-25T08:20:02;4.95;;;3.10;;
4636;SDS011;2331;48.806;9.140;2023-04-25T08:22:30;4.03;;;2.83;;
4636;SDS011;2331;48.806;9.140;2023-04-25T08:24:57;5.15;;;3.30;;
4636;SDS011;2331;48.806;9.140;2023-04-25T08:27:24;5.20;;;2.90;;
4636;SDS011;2331;48.806;9.140;2023-04-25T08:29:51;3.35;;;2.75;;
4636;SDS011;2331;48.806;9.140;2023-04-25T08:32:19;4.53;;;3.05;;
4636;SDS011;2331;48.806;9.140;2023-04-25T08:34:46;3.72;;;3.38;;
4636;SDS011;2331;48.806;9.140;2023-04-25T08:37:13;3.90;;;3.20;;
4636;SDS011;2331;48.806;9.140;2023-04-25T08:39:40;4.40;;;3.15;;
4636;SDS011;2331;48.806;9.140;2023-04-25T08:42:07;5.38;;;3.20;;
4636;SDS011;2331;48.806;9.140;2023-04-25T08:44:34;5.88;;;3.28;;
4636;SDS011;2331;48.806;9.140;2023-04-25T08:47:01;9.38;;;3.45;;
4636;SDS011;2331;48.806;9.140;2023-04-25T08:49:31;4.32;;;3.15;;
4636;SDS011;2331;48.806;9.140;2023-04-25T08:51:59;3.60;;;2.65;;
4636;SDS011;2331;48.806;9.140;2023-04-25T08:54:27;6.25;;;3.30;;
4636;SDS011;2331;48.806;9.140;2023-04-25T08:56:56;4.65;;;3.22;;
4636;SDS011;2331;48.806;9.140;2023-04-25T08:59:23;4.28;;;2.80;;
4636;SDS011;2331;48.806;9.140;2023-04-25T09:01:50;3.55;;;2.85;;
4636;SDS011;2331;48.806;9.140;2023-04-25T09:04:17;5.43;;;3.30;;
4636;SDS011;2331;48.806;9.140;2023-04-25T09:06:45;7.00;;;3.28;;
4636;SDS011;2331;48.806;9.140;2023-04-25T09:09:12;3.65;;;2.55;;
4636;SDS011;2331;48.806;9.140;2023-04-25T09:11:39;5.30;;;3.30;;
4636;SDS011;2331;48.806;9.140;2023-04-25T09:14:10;4.20;;;2.90;;
4636;SDS011;2331;48.806;9.140;2023-04-25T09:19:28;4.75;;;3.40;;
4636;SDS011;2331;48.806;9.140;2023-04-25T09:21:57;4.93;;;2.95;;
4636;SDS011;2331;48.806;9.140;2023-04-25T09:24:35;2.97;;;2.35;;
4636;SDS011;2331;48.806;9.140;2023-04-25T09:27:03;3.65;;;2.63;;
4636;SDS011;2331;48.806;9.140;2023-04-25T09:29:31;4.75;;;2.53;;
4636;SDS011;2331;48.806;9.140;2023-04-25T09:32:11;2.83;;;2.53;;
4636;SDS011;2331;48.806;9.140;2023-04-25T09:34:41;2.10;;;1.90;;
4636;SDS011;2331;48.806;9.140;2023-04-25T09:37:10;3.15;;;2.20;;
4636;SDS011;2331;48.806;9.140;2023-04-25T09:39:37;4.00;;;2.60;;
4636;SDS011;2331;48.806;9.140;2023-04-25T09:42:08;5.45;;;2.80;;
4636;SDS011;2331;48.806;9.140;2023-04-25T09:44:35;4.70;;;2.88;;
4636;SDS011;2331;48.806;9.140;2023-04-25T09:47:02;4.15;;;2.80;;
4636;SDS011;2331;48.806;9.140;2023-04-25T09:49:29;3.05;;;2.40;;
4636;SDS011;2331;48.806;9.140;2023-04-25T09:51:57;5.15;;;2.42;;
4636;SDS011;2331;48.806;9.140;2023-04-25T09:54:26;3.65;;;2.72;;
4636;SDS011;2331;48.806;9.140;2023-04-25T09:56:53;3.40;;;2.63;;
4636;SDS011;2331;48.806;9.140;2023-04-25T09:59:20;4.65;;;2.40;;
4636;SDS011;2331;48.806;9.140;2023-04-25T10:01:48;3.10;;;1.80;;
4636;SDS011;2331;48.806;9.140;2023-04-25T10:04:18;2.45;;;1.85;;
4636;SDS011;2331;48.806;9.140;2023-04-25T10:06:47;2.00;;;1.70;;
4636;SDS011;2331;48.806;9.140;2023-04-25T10:09:15;3.47;;;1.95;;
4636;SDS011;2331;48.806;9.140;2023-04-25T10:11:45;2.00;;;1.70;;
4636;SDS011;2331;48.806;9.140;2023-04-25T10:14:14;1.50;;;1.40;;
4636;SDS011;2331;48.806;9.140;2023-04-25T10:16:41;2.47;;;1.50;;
4636;SDS011;2331;48.806;9.140;2023-04-25T10:19:09;2.17;;;1.48;;
4636;SDS011;2331;48.806;9.140;2023-04-25T10:21:36;2.63;;;1.00;;
4636;SDS011;2331;48.806;9.140;2023-04-25T10:24:12;1.80;;;1.20;;
4636;SDS011;2331;48.806;9.140;2023-04-25T10:26:40;1.98;;;1.20;;
4636;SDS011;2331;48.806;9.140;2023-04-25T10:29:08;2.80;;;1.20;;
4636;SDS011;2331;48.806;9.140;2023-04-25T10:31:44;1.02;;;0.90;;
4636;SDS011;2331;48.806;9.140;2023-04-25T10:34:12;1.35;;;1.02;;
4636;SDS011;2331;48.806;9.140;2023-04-25T10:36:39;2.35;;;1.15;;
4636;SDS011;2331;48.806;9.140;2023-04-25T10:39:06;1.70;;;1.00;;
4636;SDS011;2331;48.806;9.140;2023-04-25T10:41:45;2.83;;;2.33;;
4636;SDS011;2331;48.806;9.140;2023-04-25T10:44:14;3.70;;;3.10;;
4636;SDS011;2331;48.806;9.140;2023-04-25T10:46:41;5.65;;;3.25;;
4636;SDS011;2331;48.806;9.140;2023-04-25T10:49:28;4.90;;;3.55;;
4636;SDS011;2331;48.806;9.140;2023-04-25T10:52:10;5.88;;;3.60;;
4636;SDS011;2331;48.806;9.140;2023-04-25T10:54:40;4.68;;;3.22;;
4636;SDS011;2331;48.806;9.140;2023-04-25T10:57:07;6.18;;;4.10;;
4636;SDS011;2331;48.806;9.140;2023-04-25T10:59:55;8.80;;;4.75;;
4636;SDS011;2331;48.806;9.140;2023-04-25T11:02:26;7.05;;;3.92;;
4636;SDS011;2331;48.806;9.140;2023-04-25T11:04:53;5.20;;;3.78;;
4636;SDS011;2331;48.806;9.140;2023-04-25T11:07:23;6.03;;;2.80;;
4636;SDS011;2331;48.806;9.140;2023-04-25T11:09:54;4.43;;;2.60;;
4636;SDS011;2331;48.806;9.140;2023-04-25T11:12:21;2.67;;;2.08;;
4636;SDS011;2331;48.806;9.140;2023-04-25T11:14:59;3.35;;;2.05;;
4636;SDS011;2331;48.806;9.140;2023-04-25T11:17:26;4.45;;;1.77;;
4636;SDS011;2331;48.806;9.140;2023-04-25T11:19:54;2.85;;;2.03;;
4636;SDS011;2331;48.806;9.140;2023-04-25T11:22:22;2.70;;;1.88;;
4636;SDS011;2331;48.806;9.140;2023-04-25T11:24:49;2.47;;;1.60;;
4636;SDS011;2331;48.806;9.140;2023-04-25T11:27:16;2.83;;;1.88;;
4636;SDS011;2331;48.806;9.140;2023-04-25T11:29:43;2.65;;;1.95;;
4636;SDS011;2331;48.806;9.140;2023-04-25T11:32:11;2.30;;;1.70;;
4636;SDS011;2331;48.806;9.140;2023-04-25T11:34:38;3.75;;;1.90;;
4636;SDS011;2331;48.806;9.140;2023-04-25T11:37:05;2.30;;;1.85;;
4636;SDS011;2331;48.806;9.140;2023-04-25T11:39:32;1.98;;;1.67;;
4636;SDS011;2331;48.806;9.140;2023-04-25T11:41:58;3.10;;;2.03;;
4636;SDS011;2331;48.806;9.140;2023-04-25T11:44:26;3.28;;;2.30;;
4636;SDS011;2331;48.806;9.140;2023-04-25T11:46:57;3.95;;;2.40;;
4636;SDS011;2331;48.806;9.140;2023-04-25T11:49:25;5.43;;;2.75;;
4636;SDS011;2331;48.806;9.140;2023-04-25T11:51:56;4.47;;;2.67;;
4636;SDS011;2331;48.806;9.140;2023-04-25T11:54:23;2.70;;;2.28;;
4636;SDS011;2331;48.806;9.140;2023-04-25T11:56:51;3.10;;;2.60;;
4636;SDS011;2331;48.806;9.140;2023-04-25T11:59:17;3.70;;;2.85;;
4636;SDS011;2331;48.806;9.140;2023-04-25T12:01:50;4.75;;;3.00;;
4636;SDS011;2331;48.806;9.140;2023-04-25T12:04:17;5.53;;;3.70;;
4636;SDS011;2331;48.806;9.140;2023-04-25T12:06:46;6.95;;;2.90;;
4636;SDS011;2331;48.806;9.140;2023-04-25T12:09:14;3.78;;;3.05;;
4636;SDS011;2331;48.806;9.140;2023-04-25T12:11:44;6.07;;;3.40;;
4636;SDS011;2331;48.806;9.140;2023-04-25T12:14:11;4.93;;;3.25;;
4636;SDS011;2331;48.806;9.140;2023-04-25T12:16:41;6.95;;;3.10;;
4636;SDS011;2331;48.806;9.140;2023-04-25T12:19:09;3.92;;;3.08;;
4636;SDS011;2331;48.806;9.140;2023-04-25T12:21:39;6.78;;;3.47;;
4636;SDS011;2331;48.806;9.140;2023-04-25T12:24:11;5.55;;;3.17;;
4636;SDS011;2331;48.806;9.140;2023-04-25T12:26:46;4.78;;;3.70;;
4636;SDS011;2331;48.806;9.140;2023-04-25T12:29:15;7.57;;;3.70;;
4636;SDS011;2331;48.806;9.140;2023-04-25T12:31:43;8.57;;;4.32;;
4636;SDS011;2331;48.806;9.140;2023-04-25T12:34:09;6.25;;;4.00;;
4636;SDS011;2331;48.806;9.140;2023-04-25T12:36:37;4.95;;;3.95;;
4636;SDS011;2331;48.806;9.140;2023-04-25T12:39:03;7.45;;;3.83;;
4636;SDS011;2331;48.806;9.140;2023-04-25T12:41:31;8.00;;;5.32;;
4636;SDS011;2331;48.806;9.140;2023-04-25T12:43:58;8.02;;;4.55;;
4636;SDS011;2331;48.806;9.140;2023-04-25T12:46:25;6.28;;;4.50;;
4636;SDS011;2331;48.806;9.140;2023-04-25T12:48:52;9.15;;;4.88;;
4636;SDS011;2331;48.806;9.140;2023-04-25T12:51:20;6.88;;;4.25;;
4636;SDS011;2331;48.806;9.140;2023-04-25T12:53:49;5.68;;;4.22;;
4636;SDS011;2331;48.806;9.140;2023-04-25T12:56:16;8.52;;;5.20;;
4636;SDS011;2331;48.806;9.140;2023-04-25T12:58:45;9.10;;;5.13;;
4636;SDS011;2331;48.806;9.140;2023-04-25T13:01:13;6.65;;;4.97;;
4636;SDS011;2331;48.806;9.140;2023-04-25T13:03:39;6.93;;;4.72;;
4636;SDS011;2331;48.806;9.140;2023-04-25T13:06:06;8.95;;;5.35;;
4636;SDS011;2331;48.806;9.140;2023-04-25T13:08:33;8.90;;;5.30;;
4636;SDS011;2331;48.806;9.140;2023-04-25T13:11:01;6.97;;;5.00;;
4636;SDS011;2331;48.806;9.140;2023-04-25T13:13:29;9.43;;;4.80;;
4636;SDS011;2331;48.806;9.140;2023-04-25T13:15:57;9.52;;;5.05;;
4636;SDS011;2331;48.806;9.140;2023-04-25T13:18:24;7.75;;;4.97;;
4636;SDS011;2331;48.806;9.140;2023-04-25T13:20:51;10.63;;;5.45;;
4636;SDS011;2331;48.806;9.140;2023-04-25T13:23:19;13.30;;;6.22;;
4636;SDS011;2331;48.806;9.140;2023-04-25T13:25:46;9.20;;;5.63;;
4636;SDS011;2331;48.806;9.140;2023-04-25T13:28:13;8.93;;;5.57;;
4636;SDS011;2331;48.806;9.140;2023-04-25T13:30:41;9.15;;;6.15;;
4636;SDS011;2331;48.806;9.140;2023-04-25T13:33:10;7.38;;;5.60;;
4636;SDS011;2331;48.806;9.140;2023-04-25T13:35:37;11.15;;;6.53;;
4636;SDS011;2331;48.806;9.140;2023-04-25T13:38:04;9.00;;;6.35;;
4636;SDS011;2331;48.806;9.140;2023-04-25T13:40:31;12.05;;;7.35;;
4636;SDS011;2331;48.806;9.140;2023-04-25T13:42:58;11.27;;;7.28;;
4636;SDS011;2331;48.806;9.140;2023-04-25T13:45:25;12.63;;;7.07;;
4636;SDS011;2331;48.806;9.140;2023-04-25T13:47:52;14.70;;;7.85;;
4636;SDS011;2331;48.806;9.140;2023-04-25T13:50:20;14.15;;;8.02;;
4636;SDS011;2331;48.806;9.140;2023-04-25T13:52:47;13.73;;;7.22;;
4636;SDS011;2331;48.806;9.140;2023-04-25T13:55:13;11.25;;;7.40;;
4636;SDS011;2331;48.806;9.140;2023-04-25T13:57:40;13.27;;;6.93;;
4636;SDS011;2331;48.806;9.140;2023-04-25T14:00:07;10.27;;;5.95;;
4636;SDS011;2331;48.806;9.140;2023-04-25T14:02:35;11.93;;;6.63;;
4636;SDS011;2331;48.806;9.140;2023-04-25T14:05:02;10.32;;;6.88;;
4636;SDS011;2331;48.806;9.140;2023-04-25T14:07:31;15.18;;;6.90;;
4636;SDS011;2331;48.806;9.140;2023-04-25T14:10:00;11.52;;;6.60;;
4636;SDS011;2331;48.806;9.140;2023-04-25T14:12:29;10.13;;;5.60;;
4636;SDS011;2331;48.806;9.140;2023-04-25T14:14:57;7.32;;;4.95;;
4636;SDS011;2331;48.806;9.140;2023-04-25T14:17:23;7.80;;;5.60;;
4636;SDS011;2331;48.806;9.140;2023-04-25T14:19:50;8.80;;;5.82;;
4636;SDS011;2331;48.806;9.140;2023-04-25T14:22:17;8.73;;;5.40;;
4636;SDS011;2331;48.806;9.140;2023-04-25T14:24:45;8.95;;;5.65;;
4636;SDS011;2331;48.806;9.140;2023-04-25T14:27:12;9.13;;;5.05;;
4636;SDS011;2331;48.806;9.140;2023-04-25T14:29:39;5.95;;;4.60;;
4636;SDS011;2331;48.806;9.140;2023-04-25T14:32:06;6.57;;;4.40;;
4636;SDS011;2331;48.806;9.140;2023-04-25T14:34:33;5.90;;;4.05;;
4636;SDS011;2331;48.806;9.140;2023-04-25T14:37:00;7.22;;;4.15;;
4636;SDS011;2331;48.806;9.140;2023-04-25T14:39:27;5.70;;;4.05;;
4636;SDS011;2331;48.806;9.140;2023-04-25T14:41:55;4.90;;;3.80;;
4636;SDS011;2331;48.806;9.140;2023-04-25T14:44:22;5.63;;;4.20;;
4636;SDS011;2331;48.806;9.140;2023-04-25T14:46:49;7.30;;;4.18;;
4636;SDS011;2331;48.806;9.140;2023-04-25T14:49:17;8.00;;;4.63;;
4636;SDS011;2331;48.806;9.140;2023-04-25T14:51:45;7.78;;;4.47;;
4636;SDS011;2331;48.806;9.140;2023-04-25T14:54:11;7.63;;;4.40;;
4636;SDS011;2331;48.806;9.140;2023-04-25T14:56:38;7.78;;;3.72;;
4636;SDS011;2331;48.806;9.140;2023-04-25T14:59:06;6.65;;;4.00;;
4636;SDS011;2331;48.806;9.140;2023-04-25T15:01:33;6.55;;;4.45;;
4636;SDS011;2331;48.806;9.140;2023-04-25T15:04:01;10.38;;;4.38;;
4636;SDS011;2331;48.806;9.140;2023-04-25T15:06:28;8.13;;;5.20;;
4636;SDS011;2331;48.806;9.140;2023-04-25T15:08:55;7.32;;;4.93;;
4636;SDS011;2331;48.806;9.140;2023-04-25T15:11:23;13.07;;;5.10;;
4636;SDS011;2331;48.806;9.140;2023-04-25T15:13:51;8.30;;;5.00;;
4636;SDS011;2331;48.806;9.140;2023-04-25T15:16:19;6.82;;;4.90;;
4636;SDS011;2331;48.806;9.140;2023-04-25T15:18:46;7.10;;;4.85;;
4636;SDS011;2331;48.806;9.140;2023-04-25T15:21:13;7.95;;;4.65;;